sensor_id;sensor_type;location;lat;lon;timestamp;temperature;humidity
24802;DHT22;12898;50.520;12.152;2022-07-10T00:00:34;12.80;99.90
24802;DHT22;12898;50.520;12.152;2022-07-10T00:03:01;12.80;99.90
24802;DHT22;12898;50.520;12.152;2022-07-10T00:05:28;12.80;99.90
24802;DHT22;12898;50.520;12.152;2022-07-10T00:07:54;12.70;99.90
24802;DHT22;12898;50.520;12.152;2022-07-10T00:10:21;12.70;99.90
24802;DHT22;12898;50.520;12.152;2022-07-10T00:12:48;12.60;99.90
24802;DHT22;12898;50.520;12.152;2022-07-10T00:15:14;12.60;99.90
24802;DHT22;12898;50.520;12.152;2022-07-10T00:17:42;12.50;99.90
24802;DHT22;12898;50.520;12.152;2022-07-10T00:20:09;12.50;99.90
24802;DHT22;12898;50.520;12.152;2022-07-10T00:22:37;12.40;99.90
24802;DHT22;12898;50.520;12.152;2022-07-10T00:25:04;12.40;99.90
24802;DHT22;12898;50.520;12.152;2022-07-10T00:27:30;12.30;99.90
24802;DHT22;12898;50.520;12.152;2022-07-10T00:29:56;12.30;99.90
24802;DHT22;12898;50.520;12.152;2022-07-10T00:32:23;12.30;99.90
24802;DHT22;12898;50.520;12.152;2022-07-10T00:34:49;12.20;99.90
24802;DHT22;12898;50.520;12.152;2022-07-10T00:37:15;12.20;99.90
24802;DHT22;12898;50.520;12.152;2022-07-10T00:39:41;12.10;99.90
24802;DHT22;12898;50.520;12.152;2022-07-10T00:42:12;12.10;99.90
24802;DHT22;12898;50.520;12.152;2022-07-10T00:44:39;12.10;99.90
24802;DHT22;12898;50.520;12.152;2022-07-10T00:47:06;12.10;99.90
24802;DHT22;12898;50.520;12.152;2022-07-10T00:49:35;12.00;99.90
24802;DHT22;12898;50.520;12.152;2022-07-10T00:52:03;12.00;99.90
24802;DHT22;12898;50.520;12.152;2022-07-10T00:54:32;11.90;99.90
24802;DHT22;12898;50.520;12.152;2022-07-10T00:56:59;11.90;99.90
24802;DHT22;12898;50.520;12.152;2022-07-10T00:59:27;11.90;99.90
24802;DHT22;12898;50.520;12.152;2022-07-10T01:01:53;11.80;99.90
24802;DHT22;12898;50.520;12.152;2022-07-10T01:04:19;11.70;99.90
24802;DHT22;12898;50.520;12.152;2022-07-10T01:06:45;11.70;99.90
24802;DHT22;12898;50.520;12.152;2022-07-10T01:09:11;11.70;99.90
24802;DHT22;12898;50.520;12.152;2022-07-10T01:11:37;11.70;99.90
24802;DHT22;12898;50.520;12.152;2022-07-10T01:14:04;11.70;99.90
24802;DHT22;12898;50.520;12.152;2022-07-10T01:16:30;11.70;99.90
24802;DHT22;12898;50.520;12.152;2022-07-10T01:18:57;11.70;99.90
24802;DHT22;12898;50.520;12.152;2022-07-10T01:21:31;11.70;99.90
24802;DHT22;12898;50.520;12.152;2022-07-10T01:23:58;11.60;99.90
24802;DHT22;12898;50.520;12.152;2022-07-10T01:26:25;11.60;99.90
24802;DHT22;12898;50.520;12.152;2022-07-10T01:28:52;11.60;99.90
24802;DHT22;12898;50.520;12.152;2022-07-10T01:31:25;11.60;99.90
24802;DHT22;12898;50.520;12.152;2022-07-10T01:33:52;11.60;99.90
24802;DHT22;12898;50.520;12.152;2022-07-10T01:36:20;11.60;99.90
24802;DHT22;12898;50.520;12.152;2022-07-10T01:38:46;11.60;99.90
24802;DHT22;12898;50.520;12.152;2022-07-10T01:41:12;11.60;99.90
24802;DHT22;12898;50.520;12.152;2022-07-10T01:43:38;11.60;99.90
24802;DHT22;12898;50.520;12.152;2022-07-10T01:46:08;11.60;99.90
24802;DHT22;12898;50.520;12.152;2022-07-10T01:48:36;11.50;99.90
24802;DHT22;12898;50.520;12.152;2022-07-10T01:51:06;11.40;99.90
24802;DHT22;12898;50.520;12.152;2022-07-10T01:53:32;11.40;99.90
24802;DHT22;12898;50.520;12.152;2022-07-10T01:55:59;11.40;99.90
24802;DHT22;12898;50.520;12.152;2022-07-10T01:58:26;11.40;99.90
24802;DHT22;12898;50.520;12.152;2022-07-10T02:00:52;11.40;99.90
24802;DHT22;12898;50.520;12.152;2022-07-10T02:03:17;11.30;99.90
24802;DHT22;12898;50.520;12.152;2022-07-10T02:06:01;11.30;99.90
24802;DHT22;12898;50.520;12.152;2022-07-10T02:08:27;11.30;99.90
24802;DHT22;12898;50.520;12.152;2022-07-10T02:10:53;11.30;99.90
24802;DHT22;12898;50.520;12.152;2022-07-10T02:13:19;11.30;99.90
24802;DHT22;12898;50.520;12.152;2022-07-10T02:15:46;11.20;99.90
24802;DHT22;12898;50.520;12.152;2022-07-10T02:18:13;11.20;99.90
24802;DHT22;12898;50.520;12.152;2022-07-10T02:20:39;11.20;99.90
24802;DHT22;12898;50.520;12.152;2022-07-10T02:23:04;11.10;99.90
24802;DHT22;12898;50.520;12.152;2022-07-10T02:25:32;11.10;99.90
24802;DHT22;12898;50.520;12.152;2022-07-10T02:27:58;11.10;99.90
24802;DHT22;12898;50.520;12.152;2022-07-10T02:30:25;11.10;99.90
24802;DHT22;12898;50.520;12.152;2022-07-10T02:32:51;11.00;99.90
24802;DHT22;12898;50.520;12.152;2022-07-10T02:35:17;11.00;99.90
24802;DHT22;12898;50.520;12.152;2022-07-10T02:37:43;11.00;99.90
24802;DHT22;12898;50.520;12.152;2022-07-10T02:40:09;11.00;99.90
24802;DHT22;12898;50.520;12.152;2022-07-10T02:42:35;11.00;99.90
24802;DHT22;12898;50.520;12.152;2022-07-10T02:45:01;11.00;99.90
24802;DHT22;12898;50.520;12.152;2022-07-10T02:47:26;11.00;99.90
24802;DHT22;12898;50.520;12.152;2022-07-10T02:49:52;11.00;99.90
24802;DHT22;12898;50.520;12.152;2022-07-10T02:52:18;10.90;99.90
24802;DHT22;12898;50.520;12.152;2022-07-10T02:54:43;10.90;99.90
24802;DHT22;12898;50.520;12.152;2022-07-10T02:57:09;10.90;99.90
24802;DHT22;12898;50.520;12.152;2022-07-10T02:59:35;10.80;99.90
24802;DHT22;12898;50.520;12.152;2022-07-10T03:02:01;10.90;99.90
24802;DHT22;12898;50.520;12.152;2022-07-10T03:04:27;10.90;99.90
24802;DHT22;12898;50.520;12.152;2022-07-10T03:06:52;10.90;99.90
24802;DHT22;12898;50.520;12.152;2022-07-10T03:09:18;10.90;99.90
24802;DHT22;12898;50.520;12.152;2022-07-10T03:11:44;10.80;99.90
24802;DHT22;12898;50.520;12.152;2022-07-10T03:14:10;10.80;99.90
24802;DHT22;12898;50.520;12.152;2022-07-10T03:16:36;10.80;99.90
24802;DHT22;12898;50.520;12.152;2022-07-10T03:19:02;10.90;99.90
24802;DHT22;12898;50.520;12.152;2022-07-10T03:21:28;10.90;99.90
24802;DHT22;12898;50.520;12.152;2022-07-10T03:23:55;10.80;99.90
24802;DHT22;12898;50.520;12.152;2022-07-10T03:26:21;10.80;99.90
24802;DHT22;12898;50.520;12.152;2022-07-10T03:28:46;10.80;99.90
24802;DHT22;12898;50.520;12.152;2022-07-10T03:31:12;10.70;99.90
24802;DHT22;12898;50.520;12.152;2022-07-10T03:33:38;10.70;99.90
24802;DHT22;12898;50.520;12.152;2022-07-10T03:36:04;10.60;99.90
24802;DHT22;12898;50.520;12.152;2022-07-10T03:38:30;10.60;99.90
24802;DHT22;12898;50.520;12.152;2022-07-10T03:40:56;10.60;99.90
24802;DHT22;12898;50.520;12.152;2022-07-10T03:43:22;10.60;99.90
24802;DHT22;12898;50.520;12.152;2022-07-10T03:45:48;10.60;99.90
24802;DHT22;12898;50.520;12.152;2022-07-10T03:48:13;10.70;99.90
24802;DHT22;12898;50.520;12.152;2022-07-10T03:50:39;10.70;99.90
24802;DHT22;12898;50.520;12.152;2022-07-10T03:53:05;10.70;99.90
24802;DHT22;12898;50.520;12.152;2022-07-10T03:55:30;10.70;99.90
24802;DHT22;12898;50.520;12.152;2022-07-10T03:57:56;10.80;99.90
24802;DHT22;12898;50.520;12.152;2022-07-10T04:00:24;10.80;99.90
24802;DHT22;12898;50.520;12.152;2022-07-10T04:03:02;10.80;99.90
24802;DHT22;12898;50.520;12.152;2022-07-10T04:05:29;10.80;99.90
24802;DHT22;12898;50.520;12.152;2022-07-10T04:07:56;10.90;99.90
24802;DHT22;12898;50.520;12.152;2022-07-10T04:10:23;10.90;99.90
24802;DHT22;12898;50.520;12.152;2022-07-10T04:12:49;10.90;99.90
24802;DHT22;12898;50.520;12.152;2022-07-10T04:15:15;10.90;99.90
24802;DHT22;12898;50.520;12.152;2022-07-10T04:17:41;10.90;99.90
24802;DHT22;12898;50.520;12.152;2022-07-10T04:20:08;10.90;99.90
24802;DHT22;12898;50.520;12.152;2022-07-10T04:22:34;11.00;99.90
24802;DHT22;12898;50.520;12.152;2022-07-10T04:25:00;11.00;99.90
24802;DHT22;12898;50.520;12.152;2022-07-10T04:27:26;11.10;99.90
24802;DHT22;12898;50.520;12.152;2022-07-10T04:29:52;11.10;99.90
24802;DHT22;12898;50.520;12.152;2022-07-10T04:32:18;11.10;99.90
24802;DHT22;12898;50.520;12.152;2022-07-10T04:34:43;11.10;99.90
24802;DHT22;12898;50.520;12.152;2022-07-10T04:37:10;11.10;99.90
24802;DHT22;12898;50.520;12.152;2022-07-10T04:39:36;11.20;99.90
24802;DHT22;12898;50.520;12.152;2022-07-10T04:42:03;11.20;99.90
24802;DHT22;12898;50.520;12.152;2022-07-10T04:44:30;11.30;99.90
24802;DHT22;12898;50.520;12.152;2022-07-10T04:46:56;11.30;99.90
24802;DHT22;12898;50.520;12.152;2022-07-10T04:49:22;11.30;99.90
24802;DHT22;12898;50.520;12.152;2022-07-10T04:51:47;11.30;99.90
24802;DHT22;12898;50.520;12.152;2022-07-10T04:54:13;11.40;99.90
24802;DHT22;12898;50.520;12.152;2022-07-10T04:56:39;11.30;99.90
24802;DHT22;12898;50.520;12.152;2022-07-10T04:59:04;11.30;99.90
24802;DHT22;12898;50.520;12.152;2022-07-10T05:01:30;11.30;99.90
24802;DHT22;12898;50.520;12.152;2022-07-10T05:03:56;11.30;99.90
24802;DHT22;12898;50.520;12.152;2022-07-10T05:06:21;11.30;99.90
24802;DHT22;12898;50.520;12.152;2022-07-10T05:08:47;11.40;99.90
24802;DHT22;12898;50.520;12.152;2022-07-10T05:11:13;11.40;99.90
24802;DHT22;12898;50.520;12.152;2022-07-10T05:13:39;11.50;99.90
24802;DHT22;12898;50.520;12.152;2022-07-10T05:16:05;11.50;99.90
24802;DHT22;12898;50.520;12.152;2022-07-10T05:18:31;11.60;99.90
24802;DHT22;12898;50.520;12.152;2022-07-10T05:20:57;11.70;99.90
24802;DHT22;12898;50.520;12.152;2022-07-10T05:23:22;11.80;99.90
24802;DHT22;12898;50.520;12.152;2022-07-10T05:25:49;11.80;99.90
24802;DHT22;12898;50.520;12.152;2022-07-10T05:28:15;11.90;99.90
24802;DHT22;12898;50.520;12.152;2022-07-10T05:30:41;11.90;99.90
24802;DHT22;12898;50.520;12.152;2022-07-10T05:33:07;12.00;99.90
24802;DHT22;12898;50.520;12.152;2022-07-10T05:35:33;12.00;99.90
24802;DHT22;12898;50.520;12.152;2022-07-10T05:37:59;12.00;99.90
24802;DHT22;12898;50.520;12.152;2022-07-10T05:40:25;12.00;99.90
24802;DHT22;12898;50.520;12.152;2022-07-10T05:42:51;12.10;99.90
24802;DHT22;12898;50.520;12.152;2022-07-10T05:45:17;12.10;99.90
24802;DHT22;12898;50.520;12.152;2022-07-10T05:47:43;12.20;99.90
24802;DHT22;12898;50.520;12.152;2022-07-10T05:50:10;12.20;99.90
24802;DHT22;12898;50.520;12.152;2022-07-10T05:52:37;12.30;99.90
24802;DHT22;12898;50.520;12.152;2022-07-10T05:55:03;12.30;99.90
24802;DHT22;12898;50.520;12.152;2022-07-10T05:57:30;12.40;99.90
24802;DHT22;12898;50.520;12.152;2022-07-10T05:59:57;12.40;99.90
24802;DHT22;12898;50.520;12.152;2022-07-10T06:02:23;12.40;99.90
24802;DHT22;12898;50.520;12.152;2022-07-10T06:04:48;12.40;99.90
24802;DHT22;12898;50.520;12.152;2022-07-10T06:07:14;12.50;99.90
24802;DHT22;12898;50.520;12.152;2022-07-10T06:09:41;12.50;99.90
24802;DHT22;12898;50.520;12.152;2022-07-10T06:12:07;12.50;99.90
24802;DHT22;12898;50.520;12.152;2022-07-10T06:14:33;12.50;99.90
24802;DHT22;12898;50.520;12.152;2022-07-10T06:16:59;12.60;99.90
24802;DHT22;12898;50.520;12.152;2022-07-10T06:19:25;12.60;99.90
24802;DHT22;12898;50.520;12.152;2022-07-10T06:21:51;12.60;99.90
24802;DHT22;12898;50.520;12.152;2022-07-10T06:24:39;12.70;99.90
24802;DHT22;12898;50.520;12.152;2022-07-10T06:27:05;12.70;99.90
24802;DHT22;12898;50.520;12.152;2022-07-10T06:29:31;12.80;99.90
24802;DHT22;12898;50.520;12.152;2022-07-10T06:31:57;12.80;99.90
24802;DHT22;12898;50.520;12.152;2022-07-10T06:34:22;12.90;99.90
24802;DHT22;12898;50.520;12.152;2022-07-10T06:36:48;12.90;99.90
24802;DHT22;12898;50.520;12.152;2022-07-10T06:39:14;13.00;99.90
24802;DHT22;12898;50.520;12.152;2022-07-10T06:41:40;13.00;99.90
24802;DHT22;12898;50.520;12.152;2022-07-10T06:44:05;13.10;99.90
24802;DHT22;12898;50.520;12.152;2022-07-10T06:46:32;13.30;99.90
24802;DHT22;12898;50.520;12.152;2022-07-10T06:48:58;13.40;99.90
24802;DHT22;12898;50.520;12.152;2022-07-10T06:51:24;13.50;99.90
24802;DHT22;12898;50.520;12.152;2022-07-10T06:53:50;13.60;99.90
24802;DHT22;12898;50.520;12.152;2022-07-10T06:56:16;13.70;99.90
24802;DHT22;12898;50.520;12.152;2022-07-10T06:58:42;13.80;99.90
24802;DHT22;12898;50.520;12.152;2022-07-10T07:01:08;13.90;99.90
24802;DHT22;12898;50.520;12.152;2022-07-10T07:03:33;13.90;99.90
24802;DHT22;12898;50.520;12.152;2022-07-10T07:05:59;13.90;99.90
24802;DHT22;12898;50.520;12.152;2022-07-10T07:08:25;13.90;99.90
24802;DHT22;12898;50.520;12.152;2022-07-10T07:10:51;13.90;99.90
24802;DHT22;12898;50.520;12.152;2022-07-10T07:13:17;13.90;99.90
24802;DHT22;12898;50.520;12.152;2022-07-10T07:15:42;13.90;99.90
24802;DHT22;12898;50.520;12.152;2022-07-10T07:18:14;14.00;99.90
24802;DHT22;12898;50.520;12.152;2022-07-10T07:20:41;14.00;99.90
24802;DHT22;12898;50.520;12.152;2022-07-10T07:23:26;14.00;99.90
24802;DHT22;12898;50.520;12.152;2022-07-10T07:25:52;14.00;99.90
24802;DHT22;12898;50.520;12.152;2022-07-10T07:28:19;14.10;99.90
24802;DHT22;12898;50.520;12.152;2022-07-10T07:30:48;14.20;99.90
24802;DHT22;12898;50.520;12.152;2022-07-10T07:33:14;14.20;99.90
24802;DHT22;12898;50.520;12.152;2022-07-10T07:35:40;14.30;99.90
24802;DHT22;12898;50.520;12.152;2022-07-10T07:38:06;14.40;99.90
24802;DHT22;12898;50.520;12.152;2022-07-10T07:40:32;14.40;99.90
24802;DHT22;12898;50.520;12.152;2022-07-10T07:42:58;14.30;99.90
24802;DHT22;12898;50.520;12.152;2022-07-10T07:45:25;14.40;99.90
24802;DHT22;12898;50.520;12.152;2022-07-10T07:47:55;14.60;99.90
24802;DHT22;12898;50.520;12.152;2022-07-10T07:50:33;14.50;99.90
24802;DHT22;12898;50.520;12.152;2022-07-10T07:53:02;14.60;99.90
24802;DHT22;12898;50.520;12.152;2022-07-10T07:55:29;14.60;99.90
24802;DHT22;12898;50.520;12.152;2022-07-10T07:57:56;14.70;99.90
24802;DHT22;12898;50.520;12.152;2022-07-10T08:00:24;14.70;99.90
24802;DHT22;12898;50.520;12.152;2022-07-10T08:02:52;14.70;99.90
24802;DHT22;12898;50.520;12.152;2022-07-10T08:05:19;14.70;99.90
24802;DHT22;12898;50.520;12.152;2022-07-10T08:07:48;14.90;99.90
24802;DHT22;12898;50.520;12.152;2022-07-10T08:10:17;15.00;99.90
24802;DHT22;12898;50.520;12.152;2022-07-10T08:12:44;15.20;99.90
24802;DHT22;12898;50.520;12.152;2022-07-10T08:15:18;15.30;99.90
24802;DHT22;12898;50.520;12.152;2022-07-10T08:17:48;15.40;99.90
24802;DHT22;12898;50.520;12.152;2022-07-10T08:20:25;15.50;99.90
24802;DHT22;12898;50.520;12.152;2022-07-10T08:22:51;15.60;99.90
24802;DHT22;12898;50.520;12.152;2022-07-10T08:25:19;15.80;99.90
24802;DHT22;12898;50.520;12.152;2022-07-10T08:27:45;16.00;99.90
24802;DHT22;12898;50.520;12.152;2022-07-10T08:30:12;16.20;99.90
24802;DHT22;12898;50.520;12.152;2022-07-10T08:32:38;16.30;99.90
24802;DHT22;12898;50.520;12.152;2022-07-10T08:35:05;16.40;99.90
24802;DHT22;12898;50.520;12.152;2022-07-10T08:37:41;16.20;99.90
24802;DHT22;12898;50.520;12.152;2022-07-10T08:40:13;15.90;99.90
24802;DHT22;12898;50.520;12.152;2022-07-10T08:42:41;15.60;99.90
24802;DHT22;12898;50.520;12.152;2022-07-10T08:45:15;15.50;99.90
24802;DHT22;12898;50.520;12.152;2022-07-10T08:47:43;15.60;99.90
24802;DHT22;12898;50.520;12.152;2022-07-10T08:50:24;15.70;99.90
24802;DHT22;12898;50.520;12.152;2022-07-10T08:53:12;15.90;99.90
24802;DHT22;12898;50.520;12.152;2022-07-10T08:55:39;16.10;99.90
24802;DHT22;12898;50.520;12.152;2022-07-10T08:58:05;16.20;99.90
24802;DHT22;12898;50.520;12.152;2022-07-10T09:00:33;16.20;99.90
24802;DHT22;12898;50.520;12.152;2022-07-10T09:02:59;15.80;99.90
24802;DHT22;12898;50.520;12.152;2022-07-10T09:05:26;15.60;99.90
24802;DHT22;12898;50.520;12.152;2022-07-10T09:07:56;15.30;99.90
24802;DHT22;12898;50.520;12.152;2022-07-10T09:10:25;15.30;99.90
24802;DHT22;12898;50.520;12.152;2022-07-10T09:12:54;15.20;99.90
24802;DHT22;12898;50.520;12.152;2022-07-10T09:15:28;15.10;99.90
24802;DHT22;12898;50.520;12.152;2022-07-10T09:18:05;15.10;99.90
24802;DHT22;12898;50.520;12.152;2022-07-10T09:23:17;15.50;99.90
24802;DHT22;12898;50.520;12.152;2022-07-10T09:25:45;15.70;99.90
24802;DHT22;12898;50.520;12.152;2022-07-10T09:28:13;15.70;99.90
24802;DHT22;12898;50.520;12.152;2022-07-10T09:30:41;15.80;99.90
24802;DHT22;12898;50.520;12.152;2022-07-10T09:33:25;15.70;99.90
24802;DHT22;12898;50.520;12.152;2022-07-10T09:36:07;15.40;99.90
24802;DHT22;12898;50.520;12.152;2022-07-10T09:41:15;15.30;99.90
24802;DHT22;12898;50.520;12.152;2022-07-10T09:44:01;15.20;99.90
24802;DHT22;12898;50.520;12.152;2022-07-10T09:46:39;15.10;99.90
24802;DHT22;12898;50.520;12.152;2022-07-10T09:49:11;14.90;99.90
24802;DHT22;12898;50.520;12.152;2022-07-10T09:51:46;14.70;99.90
24802;DHT22;12898;50.520;12.152;2022-07-10T09:54:15;14.60;99.90
24802;DHT22;12898;50.520;12.152;2022-07-10T09:59:14;14.50;99.90
24802;DHT22;12898;50.520;12.152;2022-07-10T10:01:47;14.50;99.90
24802;DHT22;12898;50.520;12.152;2022-07-10T10:04:17;14.50;99.90
24802;DHT22;12898;50.520;12.152;2022-07-10T10:06:50;14.50;99.90
24802;DHT22;12898;50.520;12.152;2022-07-10T10:12:16;14.30;99.90
24802;DHT22;12898;50.520;12.152;2022-07-10T10:14:47;14.30;99.90
24802;DHT22;12898;50.520;12.152;2022-07-10T10:17:15;14.20;99.90
24802;DHT22;12898;50.520;12.152;2022-07-10T10:19:41;14.00;99.90
24802;DHT22;12898;50.520;12.152;2022-07-10T10:22:27;13.90;99.90
24802;DHT22;12898;50.520;12.152;2022-07-10T10:24:54;13.80;99.90
24802;DHT22;12898;50.520;12.152;2022-07-10T10:27:20;13.80;99.90
24802;DHT22;12898;50.520;12.152;2022-07-10T10:29:48;13.70;99.90
24802;DHT22;12898;50.520;12.152;2022-07-10T10:32:14;13.70;99.90
24802;DHT22;12898;50.520;12.152;2022-07-10T10:34:44;13.90;99.90
24802;DHT22;12898;50.520;12.152;2022-07-10T10:37:34;14.10;99.90
24802;DHT22;12898;50.520;12.152;2022-07-10T10:40:08;14.40;99.90
24802;DHT22;12898;50.520;12.152;2022-07-10T10:42:43;14.70;99.90
24802;DHT22;12898;50.520;12.152;2022-07-10T10:45:33;15.10;99.90
24802;DHT22;12898;50.520;12.152;2022-07-10T10:48:06;15.40;99.90
24802;DHT22;12898;50.520;12.152;2022-07-10T10:50:39;15.80;99.90
24802;DHT22;12898;50.520;12.152;2022-07-10T10:53:20;16.30;99.90
24802;DHT22;12898;50.520;12.152;2022-07-10T10:58:41;17.40;99.60
24802;DHT22;12898;50.520;12.152;2022-07-10T11:07:04;18.00;97.60
24802;DHT22;12898;50.520;12.152;2022-07-10T11:09:32;18.00;89.00
24802;DHT22;12898;50.520;12.152;2022-07-10T11:14:29;18.10;93.30
24802;DHT22;12898;50.520;12.152;2022-07-10T11:16:56;18.00;91.40
24802;DHT22;12898;50.520;12.152;2022-07-10T11:19:22;17.70;91.10
24802;DHT22;12898;50.520;12.152;2022-07-10T11:22:03;17.60;93.40
24802;DHT22;12898;50.520;12.152;2022-07-10T11:24:59;17.30;94.00
24802;DHT22;12898;50.520;12.152;2022-07-10T11:30:19;17.20;92.40
24802;DHT22;12898;50.520;12.152;2022-07-10T11:32:44;17.20;92.90
24802;DHT22;12898;50.520;12.152;2022-07-10T11:35:12;17.40;96.40
24802;DHT22;12898;50.520;12.152;2022-07-10T11:37:51;17.60;95.40
24802;DHT22;12898;50.520;12.152;2022-07-10T11:40:18;17.80;92.80
24802;DHT22;12898;50.520;12.152;2022-07-10T11:42:55;18.00;92.20
24802;DHT22;12898;50.520;12.152;2022-07-10T11:45:30;18.20;93.80
24802;DHT22;12898;50.520;12.152;2022-07-10T11:47:59;18.20;86.50
24802;DHT22;12898;50.520;12.152;2022-07-10T11:50:26;18.00;86.50
24802;DHT22;12898;50.520;12.152;2022-07-10T11:52:53;17.90;91.30
24802;DHT22;12898;50.520;12.152;2022-07-10T11:55:21;17.80;90.50
24802;DHT22;12898;50.520;12.152;2022-07-10T11:57:48;17.70;90.00
24802;DHT22;12898;50.520;12.152;2022-07-10T12:00:25;17.50;91.70
24802;DHT22;12898;50.520;12.152;2022-07-10T12:02:52;17.20;91.50
24802;DHT22;12898;50.520;12.152;2022-07-10T12:05:36;16.90;90.80
24802;DHT22;12898;50.520;12.152;2022-07-10T12:08:04;16.60;92.00
24802;DHT22;12898;50.520;12.152;2022-07-10T12:10:32;16.50;93.00
24802;DHT22;12898;50.520;12.152;2022-07-10T12:13:14;16.40;94.30
24802;DHT22;12898;50.520;12.152;2022-07-10T12:15:43;16.40;93.80
24802;DHT22;12898;50.520;12.152;2022-07-10T12:18:20;16.50;93.10
24802;DHT22;12898;50.520;12.152;2022-07-10T12:20:47;16.80;94.50
24802;DHT22;12898;50.520;12.152;2022-07-10T12:23:15;17.10;95.30
24802;DHT22;12898;50.520;12.152;2022-07-10T12:25:43;17.50;94.20
24802;DHT22;12898;50.520;12.152;2022-07-10T12:28:09;17.70;90.10
24802;DHT22;12898;50.520;12.152;2022-07-10T12:30:43;17.80;92.70
24802;DHT22;12898;50.520;12.152;2022-07-10T12:33:21;18.10;90.20
24802;DHT22;12898;50.520;12.152;2022-07-10T12:35:57;18.30;88.20
24802;DHT22;12898;50.520;12.152;2022-07-10T12:38:28;18.40;90.30
24802;DHT22;12898;50.520;12.152;2022-07-10T12:41:13;18.50;91.20
24802;DHT22;12898;50.520;12.152;2022-07-10T12:43:40;18.80;87.70
24802;DHT22;12898;50.520;12.152;2022-07-10T12:51:34;19.70;86.80
24802;DHT22;12898;50.520;12.152;2022-07-10T12:54:08;20.20;84.10
24802;DHT22;12898;50.520;12.152;2022-07-10T12:56:37;20.40;78.60
24802;DHT22;12898;50.520;12.152;2022-07-10T12:59:13;20.70;71.20
24802;DHT22;12898;50.520;12.152;2022-07-10T13:01:45;20.60;73.90
24802;DHT22;12898;50.520;12.152;2022-07-10T13:04:11;20.60;76.00
24802;DHT22;12898;50.520;12.152;2022-07-10T13:06:39;20.40;71.20
24802;DHT22;12898;50.520;12.152;2022-07-10T13:09:22;20.20;73.00
24802;DHT22;12898;50.520;12.152;2022-07-10T13:11:50;19.90;74.50
24802;DHT22;12898;50.520;12.152;2022-07-10T13:14:17;19.60;72.50
24802;DHT22;12898;50.520;12.152;2022-07-10T13:16:43;19.20;74.00
24802;DHT22;12898;50.520;12.152;2022-07-10T13:19:08;19.00;77.10
24802;DHT22;12898;50.520;12.152;2022-07-10T13:21:34;19.10;74.40
24802;DHT22;12898;50.520;12.152;2022-07-10T13:24:02;19.20;73.60
24802;DHT22;12898;50.520;12.152;2022-07-10T13:26:29;19.70;75.60
24802;DHT22;12898;50.520;12.152;2022-07-10T13:28:56;20.60;72.30
24802;DHT22;12898;50.520;12.152;2022-07-10T13:31:22;21.30;66.60
24802;DHT22;12898;50.520;12.152;2022-07-10T13:33:48;21.20;67.80
24802;DHT22;12898;50.520;12.152;2022-07-10T13:36:14;20.70;65.30
24802;DHT22;12898;50.520;12.152;2022-07-10T13:38:40;20.20;63.10
24802;DHT22;12898;50.520;12.152;2022-07-10T13:41:08;19.80;68.80
24802;DHT22;12898;50.520;12.152;2022-07-10T13:43:34;19.60;72.10
24802;DHT22;12898;50.520;12.152;2022-07-10T13:46:00;19.50;71.70
24802;DHT22;12898;50.520;12.152;2022-07-10T13:48:28;19.40;71.70
24802;DHT22;12898;50.520;12.152;2022-07-10T13:50:54;19.40;74.10
24802;DHT22;12898;50.520;12.152;2022-07-10T13:53:20;19.40;71.10
24802;DHT22;12898;50.520;12.152;2022-07-10T13:55:46;19.50;71.30
24802;DHT22;12898;50.520;12.152;2022-07-10T13:58:13;19.50;69.40
24802;DHT22;12898;50.520;12.152;2022-07-10T14:00:40;19.70;72.00
24802;DHT22;12898;50.520;12.152;2022-07-10T14:03:06;19.90;66.10
24802;DHT22;12898;50.520;12.152;2022-07-10T14:05:33;20.00;65.30
24802;DHT22;12898;50.520;12.152;2022-07-10T14:07:59;20.20;65.10
24802;DHT22;12898;50.520;12.152;2022-07-10T14:10:25;20.40;65.70
24802;DHT22;12898;50.520;12.152;2022-07-10T14:12:53;20.20;63.10
24802;DHT22;12898;50.520;12.152;2022-07-10T14:15:19;20.00;64.10
24802;DHT22;12898;50.520;12.152;2022-07-10T14:17:45;19.60;64.60
24802;DHT22;12898;50.520;12.152;2022-07-10T14:20:11;19.40;68.50
24802;DHT22;12898;50.520;12.152;2022-07-10T14:22:37;19.30;67.40
24802;DHT22;12898;50.520;12.152;2022-07-10T14:25:04;19.30;64.00
24802;DHT22;12898;50.520;12.152;2022-07-10T14:27:31;19.10;67.00
24802;DHT22;12898;50.520;12.152;2022-07-10T14:29:58;19.10;66.20
24802;DHT22;12898;50.520;12.152;2022-07-10T14:32:24;19.10;68.50
24802;DHT22;12898;50.520;12.152;2022-07-10T14:34:50;19.10;67.30
24802;DHT22;12898;50.520;12.152;2022-07-10T14:37:16;19.30;68.20
24802;DHT22;12898;50.520;12.152;2022-07-10T14:39:42;19.80;67.50
24802;DHT22;12898;50.520;12.152;2022-07-10T14:42:07;20.00;68.40
24802;DHT22;12898;50.520;12.152;2022-07-10T14:44:35;20.00;67.60
24802;DHT22;12898;50.520;12.152;2022-07-10T14:47:01;19.90;67.10
24802;DHT22;12898;50.520;12.152;2022-07-10T14:49:27;19.90;66.60
24802;DHT22;12898;50.520;12.152;2022-07-10T14:51:52;20.00;62.70
24802;DHT22;12898;50.520;12.152;2022-07-10T14:54:20;20.30;67.50
24802;DHT22;12898;50.520;12.152;2022-07-10T14:56:48;20.60;61.00
24802;DHT22;12898;50.520;12.152;2022-07-10T14:59:14;21.10;61.70
24802;DHT22;12898;50.520;12.152;2022-07-10T15:01:40;21.30;59.10
24802;DHT22;12898;50.520;12.152;2022-07-10T15:04:06;21.20;59.00
24802;DHT22;12898;50.520;12.152;2022-07-10T15:06:31;21.00;61.80
24802;DHT22;12898;50.520;12.152;2022-07-10T15:08:57;20.90;58.40
24802;DHT22;12898;50.520;12.152;2022-07-10T15:11:23;20.80;59.60
24802;DHT22;12898;50.520;12.152;2022-07-10T15:13:52;20.80;59.40
24802;DHT22;12898;50.520;12.152;2022-07-10T15:16:27;21.30;61.40
24802;DHT22;12898;50.520;12.152;2022-07-10T15:18:53;21.50;58.50
24802;DHT22;12898;50.520;12.152;2022-07-10T15:21:19;21.30;59.80
24802;DHT22;12898;50.520;12.152;2022-07-10T15:23:45;21.00;56.30
24802;DHT22;12898;50.520;12.152;2022-07-10T15:26:12;20.60;59.10
24802;DHT22;12898;50.520;12.152;2022-07-10T15:28:38;20.10;58.00
24802;DHT22;12898;50.520;12.152;2022-07-10T15:31:04;19.70;61.20
24802;DHT22;12898;50.520;12.152;2022-07-10T15:33:34;19.50;60.20
24802;DHT22;12898;50.520;12.152;2022-07-10T15:36:01;19.50;59.30
24802;DHT22;12898;50.520;12.152;2022-07-10T15:38:28;19.70;61.30
24802;DHT22;12898;50.520;12.152;2022-07-10T15:40:53;19.70;61.70
24802;DHT22;12898;50.520;12.152;2022-07-10T15:43:19;19.90;60.30
24802;DHT22;12898;50.520;12.152;2022-07-10T15:45:45;20.00;61.50
24802;DHT22;12898;50.520;12.152;2022-07-10T15:48:10;20.00;59.90
24802;DHT22;12898;50.520;12.152;2022-07-10T15:50:40;20.10;62.50